Genmar Spyridon — V7BY9 — position and weather

sailwx.info

Track history (hours):
 
Tides and Currents Weather Stations Pressure Air Temp Water Temp Dewpoint Dewpoint Depression Visibility Wind Speed Wind Dir Waves Ship Positions

Genmar Spyridon

Last reported at 2015-Jul-01 14:22 UTC. Time now 2015-Jul-01 15:10 UTC.
Position N 29°53' E 122°13'.

Length 274 m; draft 9 m.

Type: Tanker. MMSI: 538001404.

Date/timePositionNaut miles runAvg speedWind from/ knotsBaromVisibWave heightAir tempDewpointWater temp
2015-Jul-01 14:22N 29°53' E 122°13'0 0.1
2015-Jul-01 13:22N 29°54' E 122°13'0 0.0
2015-Jul-01 12:16N 29°54' E 122°13'0 0.1
2015-Jul-01 09:22N 29°53' E 122°13'0 0.0
2015-Jul-01 08:22N 29°53' E 122°13'0 0.0
2015-Jul-01 03:16N 29°53' E 122°13'0 0.1
2015-Jul-01 00:16N 29°53' E 122°13'0 0.1
2015-Jun-30 19:29N 29°53' E 122°13'0 0.0
2015-Jun-30 18:29N 29°53' E 122°13'0 0.0
2015-Jun-30 17:23N 29°53' E 122°13'0 0.0
2015-Jun-30 15:11N 29°53' E 122°13'0 0.1
2015-Jun-30 14:17N 29°53' E 122°13'0 0.0
2015-Jun-30 13:17N 29°53' E 122°13'0 0.4
2015-Jun-30 12:23N 29°54' E 122°13'0 0.1
2015-Jun-30 08:05N 29°53' E 122°13'0 0.0
2015-Jun-30 06:05N 29°53' E 122°13'0 0.0
2015-Jun-29 23:23N 29°54' E 122°13'0 0.1
2015-Jun-29 21:17N 29°53' E 122°13'0 0.0
2015-Jun-29 17:17N 29°53' E 122°13'0 0.1
2015-Jun-29 16:17N 29°53' E 122°13'0 0.0
2015-Jun-29 15:11N 29°53' E 122°13'0 0.1
2015-Jun-29 14:23N 29°53' E 122°13'0 0.1
2015-Jun-29 10:11N 29°53' E 122°13'0 0.0
2015-Jun-29 01:11N 29°54' E 122°13'0 0.1
2015-Jun-28 21:14N 29°53' E 122°13'0 0.1
2015-Jun-28 20:23N 29°53' E 122°13'0 0.0
2015-Jun-28 19:11N 29°53' E 122°13'0 0.0
2015-Jun-28 11:23N 29°53' E 122°13'0 0.1
2015-Jun-28 10:33N 29°53' E 122°13'3 3.0
2015-Jun-28 09:34N 29°51' E 122°13'9 9.0
2015-Jun-28 08:34N 29°45' E 122°21'1 0.5
2015-Jun-28 05:33N 29°45' E 122°22'2 1.5
2015-Jun-28 04:33N 29°44' E 122°23'4 4.1
2015-Jun-28 03:33N 29°46' E 122°27'6 5.4
2015-Jun-28 02:31N 29°46' E 122°34'  
Track history (hours):
 
Tides and Currents Weather Stations Pressure Air Temp Water Temp Dewpoint Dewpoint Depression Visibility Wind Speed Wind Dir Waves Ship Positions

Genmar Spyridon

Last reported at 2015-Jul-01 14:22 UTC. Time now 2015-Jul-01 15:10 UTC.
Position N 29°53' E 122°13'.

Length 274 m; draft 9 m.

Type: Tanker. MMSI: 538001404.

Date/timePositionNaut miles runAvg speedWind from/ knotsBaromVisibWave heightAir tempDewpointWater temp
2015-Jul-01 14:22N 29°53' E 122°13'0 0.1
2015-Jul-01 13:22N 29°54' E 122°13'0 0.0
2015-Jul-01 12:16N 29°54' E 122°13'0 0.1
2015-Jul-01 09:22N 29°53' E 122°13'0 0.0
2015-Jul-01 08:22N 29°53' E 122°13'0 0.0
2015-Jul-01 03:16N 29°53' E 122°13'0 0.1
2015-Jul-01 00:16N 29°53' E 122°13'0 0.1
2015-Jun-30 19:29N 29°53' E 122°13'0 0.0
2015-Jun-30 18:29N 29°53' E 122°13'0 0.0
2015-Jun-30 17:23N 29°53' E 122°13'0 0.0
2015-Jun-30 15:11N 29°53' E 122°13'0 0.1
2015-Jun-30 14:17N 29°53' E 122°13'0 0.0
2015-Jun-30 13:17N 29°53' E 122°13'0 0.4
2015-Jun-30 12:23N 29°54' E 122°13'0 0.1
2015-Jun-30 08:05N 29°53' E 122°13'0 0.0
2015-Jun-30 06:05N 29°53' E 122°13'0 0.0
2015-Jun-29 23:23N 29°54' E 122°13'0 0.1
2015-Jun-29 21:17N 29°53' E 122°13'0 0.0
2015-Jun-29 17:17N 29°53' E 122°13'0 0.1
2015-Jun-29 16:17N 29°53' E 122°13'0 0.0
2015-Jun-29 15:11N 29°53' E 122°13'0 0.1
2015-Jun-29 14:23N 29°53' E 122°13'0 0.1
2015-Jun-29 10:11N 29°53' E 122°13'0 0.0
2015-Jun-29 01:11N 29°54' E 122°13'0 0.1
2015-Jun-28 21:14N 29°53' E 122°13'0 0.1
2015-Jun-28 20:23N 29°53' E 122°13'0 0.0
2015-Jun-28 19:11N 29°53' E 122°13'0 0.0
2015-Jun-28 11:23N 29°53' E 122°13'0 0.1
2015-Jun-28 10:33N 29°53' E 122°13'3 3.0
2015-Jun-28 09:34N 29°51' E 122°13'9 9.0
2015-Jun-28 08:34N 29°45' E 122°21'1 0.5
2015-Jun-28 05:33N 29°45' E 122°22'2 1.5
2015-Jun-28 04:33N 29°44' E 122°23'4 4.1
2015-Jun-28 03:33N 29°46' E 122°27'6 5.4
2015-Jun-28 02:31N 29°46' E 122°34'  

Dump ship's entire track history